Impacts TAF Board
For situational awareness. Not to be used for flight planning purposes.
IDs:

KBOS - Boston/Logan Intl, MA, US

Issued at 2320 UTC 02 Jul 2022
Updated at 0443 UTC 03 Jul 2022
Potential Impact None Slight Moderate High
Time0354Z 03/05Z 03/06Z 03/07Z 03/08Z 03/09Z 03/10Z 03/11Z 03/12Z 03/13Z 03/14Z 03/15Z 03/16Z 03/17Z>>
Type OBS PRVL PRVL PRVL PRVL PRVL PRVL PRVL PRVL PRVL PRVL PRVL PRVL PRVL
VIS 10 >6 >6 >6 >6 >6 >6 >6 >6 >6 >6 >6 >6 >6
CIG 220 -- -- -- -- -- -- -- -- -- -- -- -- --
Cover BKN SCT SCT SCT SCT SCT SCT SCT SCT SCT SCT SCT SCT SCT
FltCat VFR VFR VFR VFR VFR VFR VFR VFR VFR VFR VFR VFR VFR VFR
WX -- -- -- -- -- -- -- -- -- -- -- -- -- --
WDir 240 280 280 280 280 280 280 280 280 280 280 280 280 280
WSpd 9 7 7 7 7 7 7 7 7 7 7 7 7 7
WGst -- -- -- -- -- -- -- -- -- -- -- -- -- --
WSHgt -- -- -- -- -- -- -- -- -- -- -- -- -- --
WSDir -- -- -- -- -- -- -- -- -- -- -- -- -- --
WSSpd -- -- -- -- -- -- -- -- -- -- -- -- -- --
Raw TAF
KBOS 022320Z 0300/0406 23011KT P6SM VCTS SCT060CB
  FM030100 23008KT P6SM VCSH SCT060
  FM030300 28007KT P6SM FEW050 SCT250


Raw METAR
KBOS 030354Z 24009KT 10SM FEW045 SCT150 BKN220 23/19 A2991 RMK AO2 SLP129 T02280189
KBOS 030254Z 23011KT 10SM BKN220 BKN250 22/19 A2991 RMK AO2 SLP129 60000 T02170194 53014
KBOS 030154Z 22009KT 10SM FEW150 SCT220 23/19 A2990 RMK AO2 SLP125 T02280189

METAR Board
Radar Display
Forecast Discussion
For situational awareness. Not to be used for flight planning purposes.